sensor_id;sensor_type;location;lat;lon;timestamp;P1;durP1;ratioP1;P2;durP2;ratioP2
63379;SDS011;53160;55.014;73.156;2023-05-10T00:02:10;73.60;;;59.60;;
63379;SDS011;53160;55.014;73.156;2023-05-10T00:04:36;74.00;;;60.25;;
63379;SDS011;53160;55.014;73.156;2023-05-10T00:07:02;73.20;;;58.80;;
63379;SDS011;53160;55.014;73.156;2023-05-10T00:09:28;74.00;;;61.00;;
63379;SDS011;53160;55.014;73.156;2023-05-10T00:11:54;68.80;;;55.20;;
63379;SDS011;53160;55.014;73.156;2023-05-10T00:14:20;74.60;;;61.60;;
63379;SDS011;53160;55.014;73.156;2023-05-10T00:16:46;69.40;;;57.60;;
63379;SDS011;53160;55.014;73.156;2023-05-10T00:19:12;79.50;;;61.75;;
63379;SDS011;53160;55.014;73.156;2023-05-10T00:21:39;76.80;;;62.20;;
63379;SDS011;53160;55.014;73.156;2023-05-10T00:24:05;82.50;;;63.50;;
63379;SDS011;53160;55.014;73.156;2023-05-10T00:26:31;76.60;;;61.20;;
63379;SDS011;53160;55.014;73.156;2023-05-10T00:28:57;86.80;;;67.80;;
63379;SDS011;53160;55.014;73.156;2023-05-10T00:31:42;85.40;;;67.60;;
63379;SDS011;53160;55.014;73.156;2023-05-10T00:34:09;82.20;;;66.40;;
63379;SDS011;53160;55.014;73.156;2023-05-10T00:36:56;80.40;;;62.80;;
63379;SDS011;53160;55.014;73.156;2023-05-10T00:39:21;84.60;;;66.20;;
63379;SDS011;53160;55.014;73.156;2023-05-10T00:41:48;87.40;;;71.60;;
63379;SDS011;53160;55.014;73.156;2023-05-10T00:47:19;85.80;;;67.20;;
63379;SDS011;53160;55.014;73.156;2023-05-10T00:49:46;82.80;;;63.40;;
63379;SDS011;53160;55.014;73.156;2023-05-10T00:52:12;84.00;;;68.60;;
63379;SDS011;53160;55.014;73.156;2023-05-10T00:54:38;85.00;;;65.80;;
63379;SDS011;53160;55.014;73.156;2023-05-10T00:57:23;85.40;;;66.80;;
63379;SDS011;53160;55.014;73.156;2023-05-10T01:00:08;85.60;;;65.80;;
63379;SDS011;53160;55.014;73.156;2023-05-10T01:02:35;70.40;;;58.80;;
63379;SDS011;53160;55.014;73.156;2023-05-10T01:05:01;84.20;;;66.80;;
63379;SDS011;53160;55.014;73.156;2023-05-10T01:07:29;81.00;;;63.40;;
63379;SDS011;53160;55.014;73.156;2023-05-10T01:09:55;81.20;;;64.20;;
63379;SDS011;53160;55.014;73.156;2023-05-10T01:12:41;80.20;;;62.80;;
63379;SDS011;53160;55.014;73.156;2023-05-10T01:15:08;81.00;;;63.00;;
63379;SDS011;53160;55.014;73.156;2023-05-10T01:17:37;81.40;;;63.20;;
63379;SDS011;53160;55.014;73.156;2023-05-10T01:20:04;77.60;;;63.20;;
63379;SDS011;53160;55.014;73.156;2023-05-10T01:25:58;80.40;;;64.60;;
63379;SDS011;53160;55.014;73.156;2023-05-10T01:34:11;78.00;;;62.00;;
63379;SDS011;53160;55.014;73.156;2023-05-10T01:37:01;74.60;;;59.00;;
63379;SDS011;53160;55.014;73.156;2023-05-10T01:39:25;75.00;;;59.20;;
63379;SDS011;53160;55.014;73.156;2023-05-10T01:42:03;75.60;;;60.40;;
63379;SDS011;53160;55.014;73.156;2023-05-10T01:47:43;82.80;;;66.80;;
63379;SDS011;53160;55.014;73.156;2023-05-10T01:50:29;82.60;;;68.20;;
63379;SDS011;53160;55.014;73.156;2023-05-10T01:52:57;76.80;;;62.00;;
63379;SDS011;53160;55.014;73.156;2023-05-10T01:55:24;71.60;;;58.60;;
63379;SDS011;53160;55.014;73.156;2023-05-10T01:58:09;71.40;;;57.00;;
63379;SDS011;53160;55.014;73.156;2023-05-10T02:00:54;71.40;;;56.00;;
63379;SDS011;53160;55.014;73.156;2023-05-10T02:03:22;76.80;;;61.00;;
63379;SDS011;53160;55.014;73.156;2023-05-10T02:05:49;71.40;;;58.40;;
63379;SDS011;53160;55.014;73.156;2023-05-10T02:08:16;73.60;;;58.80;;
63379;SDS011;53160;55.014;73.156;2023-05-10T02:10:43;75.80;;;60.60;;
63379;SDS011;53160;55.014;73.156;2023-05-10T02:13:10;71.00;;;56.40;;
63379;SDS011;53160;55.014;73.156;2023-05-10T02:18:40;69.40;;;56.60;;
63379;SDS011;53160;55.014;73.156;2023-05-10T02:21:07;71.20;;;57.40;;
63379;SDS011;53160;55.014;73.156;2023-05-10T02:23:33;66.00;;;53.80;;
63379;SDS011;53160;55.014;73.156;2023-05-10T02:26:18;71.20;;;57.20;;
63379;SDS011;53160;55.014;73.156;2023-05-10T02:28:48;70.80;;;56.60;;
63379;SDS011;53160;55.014;73.156;2023-05-10T02:31:15;63.80;;;52.20;;
63379;SDS011;53160;55.014;73.156;2023-05-10T02:33:44;72.40;;;58.20;;
63379;SDS011;53160;55.014;73.156;2023-05-10T02:36:11;72.20;;;57.40;;
63379;SDS011;53160;55.014;73.156;2023-05-10T02:38:39;64.00;;;52.20;;
63379;SDS011;53160;55.014;73.156;2023-05-10T02:41:06;68.60;;;55.60;;
63379;SDS011;53160;55.014;73.156;2023-05-10T02:46:18;69.20;;;54.60;;
63379;SDS011;53160;55.014;73.156;2023-05-10T02:48:44;69.20;;;54.20;;
63379;SDS011;53160;55.014;73.156;2023-05-10T02:51:49;75.00;;;60.00;;
63379;SDS011;53160;55.014;73.156;2023-05-10T02:54:18;70.40;;;57.00;;
63379;SDS011;53160;55.014;73.156;2023-05-10T02:56:51;65.40;;;53.40;;
63379;SDS011;53160;55.014;73.156;2023-05-10T02:59:19;67.40;;;55.00;;
63379;SDS011;53160;55.014;73.156;2023-05-10T03:01:45;67.20;;;54.40;;
63379;SDS011;53160;55.014;73.156;2023-05-10T03:04:12;63.60;;;49.20;;
63379;SDS011;53160;55.014;73.156;2023-05-10T03:06:45;57.20;;;47.80;;
63379;SDS011;53160;55.014;73.156;2023-05-10T03:09:11;59.00;;;49.80;;
63379;SDS011;53160;55.014;73.156;2023-05-10T03:14:28;64.00;;;51.00;;
63379;SDS011;53160;55.014;73.156;2023-05-10T03:17:04;58.00;;;48.60;;
63379;SDS011;53160;55.014;73.156;2023-05-10T03:19:36;59.20;;;48.20;;
63379;SDS011;53160;55.014;73.156;2023-05-10T03:22:07;55.40;;;45.80;;
63379;SDS011;53160;55.014;73.156;2023-05-10T03:24:36;55.60;;;46.00;;
63379;SDS011;53160;55.014;73.156;2023-05-10T03:27:02;69.60;;;53.60;;
63379;SDS011;53160;55.014;73.156;2023-05-10T03:29:31;57.20;;;48.60;;
63379;SDS011;53160;55.014;73.156;2023-05-10T03:31:58;59.00;;;48.40;;
63379;SDS011;53160;55.014;73.156;2023-05-10T03:34:25;74.80;;;59.40;;
63379;SDS011;53160;55.014;73.156;2023-05-10T03:37:09;67.00;;;54.40;;
63379;SDS011;53160;55.014;73.156;2023-05-10T03:39:36;63.60;;;52.20;;
63379;SDS011;53160;55.014;73.156;2023-05-10T03:42:04;57.20;;;47.40;;
63379;SDS011;53160;55.014;73.156;2023-05-10T03:47:35;54.20;;;45.00;;
63379;SDS011;53160;55.014;73.156;2023-05-10T03:50:01;65.40;;;50.80;;
63379;SDS011;53160;55.014;73.156;2023-05-10T03:52:28;56.80;;;47.20;;
63379;SDS011;53160;55.014;73.156;2023-05-10T03:54:54;59.00;;;49.20;;
63379;SDS011;53160;55.014;73.156;2023-05-10T03:57:22;64.60;;;52.20;;
63379;SDS011;53160;55.014;73.156;2023-05-10T04:02:44;62.40;;;51.00;;
63379;SDS011;53160;55.014;73.156;2023-05-10T04:05:15;73.20;;;60.00;;
63379;SDS011;53160;55.014;73.156;2023-05-10T04:08:00;60.20;;;49.00;;
63379;SDS011;53160;55.014;73.156;2023-05-10T04:10:26;65.40;;;53.20;;
63379;SDS011;53160;55.014;73.156;2023-05-10T04:13:10;60.40;;;49.60;;
63379;SDS011;53160;55.014;73.156;2023-05-10T04:15:36;63.20;;;50.80;;
63379;SDS011;53160;55.014;73.156;2023-05-10T04:18:02;66.75;;;53.00;;
63379;SDS011;53160;55.014;73.156;2023-05-10T04:20:28;60.00;;;49.75;;
63379;SDS011;53160;55.014;73.156;2023-05-10T04:22:55;61.00;;;50.80;;
63379;SDS011;53160;55.014;73.156;2023-05-10T04:25:39;60.60;;;49.40;;
63379;SDS011;53160;55.014;73.156;2023-05-10T04:28:06;64.00;;;53.00;;
63379;SDS011;53160;55.014;73.156;2023-05-10T04:30:50;61.00;;;50.40;;
63379;SDS011;53160;55.014;73.156;2023-05-10T04:33:16;59.00;;;48.75;;
63379;SDS011;53160;55.014;73.156;2023-05-10T04:35:42;63.50;;;51.25;;
63379;SDS011;53160;55.014;73.156;2023-05-10T04:38:08;65.80;;;52.20;;
63379;SDS011;53160;55.014;73.156;2023-05-10T04:40:37;54.25;;;44.00;;
63379;SDS011;53160;55.014;73.156;2023-05-10T04:45:48;65.60;;;51.20;;
63379;SDS011;53160;55.014;73.156;2023-05-10T04:48:15;56.00;;;47.00;;
63379;SDS011;53160;55.014;73.156;2023-05-10T04:50:41;51.00;;;42.25;;
63379;SDS011;53160;55.014;73.156;2023-05-10T04:53:10;61.00;;;49.80;;
63379;SDS011;53160;55.014;73.156;2023-05-10T04:55:54;55.60;;;45.20;;
63379;SDS011;53160;55.014;73.156;2023-05-10T04:58:20;56.00;;;47.00;;
63379;SDS011;53160;55.014;73.156;2023-05-10T05:00:46;59.50;;;50.00;;
63379;SDS011;53160;55.014;73.156;2023-05-10T05:03:12;55.50;;;46.00;;
63379;SDS011;53160;55.014;73.156;2023-05-10T05:05:38;50.00;;;42.00;;
63379;SDS011;53160;55.014;73.156;2023-05-10T05:08:04;44.40;;;36.40;;
63379;SDS011;53160;55.014;73.156;2023-05-10T05:10:48;52.60;;;42.80;;
63379;SDS011;53160;55.014;73.156;2023-05-10T05:13:15;56.80;;;47.20;;
63379;SDS011;53160;55.014;73.156;2023-05-10T05:15:41;56.75;;;47.25;;
63379;SDS011;53160;55.014;73.156;2023-05-10T05:18:07;56.25;;;47.00;;
63379;SDS011;53160;55.014;73.156;2023-05-10T05:20:36;55.20;;;46.60;;
63379;SDS011;53160;55.014;73.156;2023-05-10T05:23:02;51.50;;;43.50;;
63379;SDS011;53160;55.014;73.156;2023-05-10T05:25:27;54.00;;;44.00;;
63379;SDS011;53160;55.014;73.156;2023-05-10T05:27:54;54.00;;;45.40;;
63379;SDS011;53160;55.014;73.156;2023-05-10T05:30:38;50.00;;;41.40;;
63379;SDS011;53160;55.014;73.156;2023-05-10T05:35:49;56.80;;;47.20;;
63379;SDS011;53160;55.014;73.156;2023-05-10T05:41:00;52.20;;;44.00;;
63379;SDS011;53160;55.014;73.156;2023-05-10T05:43:26;52.40;;;43.80;;
63379;SDS011;53160;55.014;73.156;2023-05-10T05:45:53;52.80;;;43.40;;
63379;SDS011;53160;55.014;73.156;2023-05-10T05:48:19;51.60;;;42.60;;
63379;SDS011;53160;55.014;73.156;2023-05-10T05:51:03;48.20;;;40.00;;
63379;SDS011;53160;55.014;73.156;2023-05-10T05:53:29;58.25;;;48.00;;
63379;SDS011;53160;55.014;73.156;2023-05-10T06:01:45;48.00;;;38.00;;
63379;SDS011;53160;55.014;73.156;2023-05-10T06:04:11;47.60;;;40.40;;
63379;SDS011;53160;55.014;73.156;2023-05-10T06:09:23;51.40;;;42.00;;
63379;SDS011;53160;55.014;73.156;2023-05-10T06:11:50;50.40;;;42.40;;
63379;SDS011;53160;55.014;73.156;2023-05-10T06:14:15;43.25;;;38.50;;
63379;SDS011;53160;55.014;73.156;2023-05-10T06:19:50;41.20;;;35.40;;
63379;SDS011;53160;55.014;73.156;2023-05-10T06:22:16;44.00;;;37.20;;
63379;SDS011;53160;55.014;73.156;2023-05-10T06:24:42;47.50;;;41.00;;
63379;SDS011;53160;55.014;73.156;2023-05-10T06:27:09;51.60;;;40.60;;
63379;SDS011;53160;55.014;73.156;2023-05-10T06:29:35;48.80;;;41.40;;
63379;SDS011;53160;55.014;73.156;2023-05-10T06:32:01;45.20;;;37.60;;
63379;SDS011;53160;55.014;73.156;2023-05-10T06:38:08;46.40;;;39.20;;
63379;SDS011;53160;55.014;73.156;2023-05-10T06:40:53;47.00;;;39.80;;
63379;SDS011;53160;55.014;73.156;2023-05-10T06:43:18;42.50;;;36.75;;
63379;SDS011;53160;55.014;73.156;2023-05-10T06:45:44;52.25;;;42.00;;
63379;SDS011;53160;55.014;73.156;2023-05-10T06:48:10;49.60;;;42.00;;
63379;SDS011;53160;55.014;73.156;2023-05-10T06:50:36;46.40;;;41.00;;
63379;SDS011;53160;55.014;73.156;2023-05-10T06:53:20;56.80;;;46.60;;
63379;SDS011;53160;55.014;73.156;2023-05-10T06:55:46;53.50;;;43.75;;
63379;SDS011;53160;55.014;73.156;2023-05-10T06:58:12;55.75;;;46.50;;
63379;SDS011;53160;55.014;73.156;2023-05-10T07:03:41;47.60;;;39.60;;
63379;SDS011;53160;55.014;73.156;2023-05-10T07:06:07;48.80;;;40.80;;
63379;SDS011;53160;55.014;73.156;2023-05-10T07:08:33;47.40;;;40.80;;
63379;SDS011;53160;55.014;73.156;2023-05-10T07:11:18;46.40;;;37.40;;
63379;SDS011;53160;55.014;73.156;2023-05-10T07:13:44;39.20;;;34.20;;
63379;SDS011;53160;55.014;73.156;2023-05-10T07:16:11;110.00;;;106.75;;
63379;SDS011;53160;55.014;73.156;2023-05-10T07:18:56;62.40;;;51.60;;
63379;SDS011;53160;55.014;73.156;2023-05-10T07:21:40;39.00;;;35.20;;
63379;SDS011;53160;55.014;73.156;2023-05-10T07:24:08;48.40;;;39.40;;
63379;SDS011;53160;55.014;73.156;2023-05-10T07:26:34;45.00;;;37.00;;
63379;SDS011;53160;55.014;73.156;2023-05-10T07:29:19;50.80;;;41.80;;
63379;SDS011;53160;55.014;73.156;2023-05-10T07:31:45;44.00;;;38.00;;
63379;SDS011;53160;55.014;73.156;2023-05-10T07:34:11;46.75;;;39.00;;
63379;SDS011;53160;55.014;73.156;2023-05-10T07:36:37;48.25;;;40.00;;
63379;SDS011;53160;55.014;73.156;2023-05-10T07:39:03;52.80;;;44.00;;
63379;SDS011;53160;55.014;73.156;2023-05-10T07:41:29;46.00;;;38.80;;
63379;SDS011;53160;55.014;73.156;2023-05-10T07:43:55;50.25;;;42.50;;
63379;SDS011;53160;55.014;73.156;2023-05-10T07:46:21;43.75;;;38.25;;
63379;SDS011;53160;55.014;73.156;2023-05-10T07:49:05;48.40;;;38.60;;
63379;SDS011;53160;55.014;73.156;2023-05-10T07:51:31;48.40;;;39.60;;
63379;SDS011;53160;55.014;73.156;2023-05-10T07:56:43;43.20;;;37.00;;
63379;SDS011;53160;55.014;73.156;2023-05-10T07:59:16;44.20;;;37.20;;
63379;SDS011;53160;55.014;73.156;2023-05-10T08:04:27;49.60;;;41.60;;
63379;SDS011;53160;55.014;73.156;2023-05-10T08:07:11;54.40;;;45.00;;
63379;SDS011;53160;55.014;73.156;2023-05-10T08:09:37;47.25;;;38.75;;
63379;SDS011;53160;55.014;73.156;2023-05-10T08:12:03;43.60;;;37.00;;
63379;SDS011;53160;55.014;73.156;2023-05-10T08:14:29;47.80;;;41.00;;
63379;SDS011;53160;55.014;73.156;2023-05-10T08:17:14;44.60;;;38.60;;
63379;SDS011;53160;55.014;73.156;2023-05-10T08:19:39;48.50;;;42.00;;
63379;SDS011;53160;55.014;73.156;2023-05-10T08:22:06;40.60;;;35.40;;
63379;SDS011;53160;55.014;73.156;2023-05-10T08:24:32;47.00;;;39.80;;
63379;SDS011;53160;55.014;73.156;2023-05-10T08:27:00;42.60;;;37.20;;
63379;SDS011;53160;55.014;73.156;2023-05-10T08:29:26;40.80;;;35.60;;
63379;SDS011;53160;55.014;73.156;2023-05-10T08:31:52;36.40;;;32.40;;
63379;SDS011;53160;55.014;73.156;2023-05-10T08:34:18;41.00;;;35.25;;
63379;SDS011;53160;55.014;73.156;2023-05-10T08:36:44;45.50;;;39.50;;
63379;SDS011;53160;55.014;73.156;2023-05-10T08:39:09;45.75;;;37.50;;
63379;SDS011;53160;55.014;73.156;2023-05-10T08:41:54;41.40;;;35.00;;
63379;SDS011;53160;55.014;73.156;2023-05-10T08:44:23;44.00;;;36.60;;
63379;SDS011;53160;55.014;73.156;2023-05-10T08:46:49;38.80;;;32.40;;
63379;SDS011;53160;55.014;73.156;2023-05-10T08:49:18;38.40;;;34.20;;
63379;SDS011;53160;55.014;73.156;2023-05-10T08:51:47;43.20;;;37.60;;
63379;SDS011;53160;55.014;73.156;2023-05-10T08:54:15;30.20;;;29.20;;
63379;SDS011;53160;55.014;73.156;2023-05-10T08:56:41;47.40;;;40.60;;
63379;SDS011;53160;55.014;73.156;2023-05-10T08:59:07;48.00;;;41.20;;
63379;SDS011;53160;55.014;73.156;2023-05-10T09:01:33;40.00;;;34.40;;
63379;SDS011;53160;55.014;73.156;2023-05-10T09:04:01;35.80;;;31.00;;
63379;SDS011;53160;55.014;73.156;2023-05-10T09:06:28;39.60;;;34.20;;
63379;SDS011;53160;55.014;73.156;2023-05-10T09:08:57;37.60;;;33.40;;
63379;SDS011;53160;55.014;73.156;2023-05-10T09:11:24;28.20;;;27.20;;
63379;SDS011;53160;55.014;73.156;2023-05-10T09:13:50;35.00;;;31.00;;
63379;SDS011;53160;55.014;73.156;2023-05-10T09:16:17;33.00;;;30.00;;
63379;SDS011;53160;55.014;73.156;2023-05-10T09:19:01;35.00;;;31.60;;
63379;SDS011;53160;55.014;73.156;2023-05-10T09:21:28;34.00;;;30.40;;
63379;SDS011;53160;55.014;73.156;2023-05-10T09:23:55;31.60;;;29.20;;
63379;SDS011;53160;55.014;73.156;2023-05-10T09:26:23;35.60;;;30.80;;
63379;SDS011;53160;55.014;73.156;2023-05-10T09:28:51;33.80;;;30.60;;
63379;SDS011;53160;55.014;73.156;2023-05-10T09:31:18;42.00;;;35.20;;
63379;SDS011;53160;55.014;73.156;2023-05-10T09:33:47;36.40;;;32.20;;
63379;SDS011;53160;55.014;73.156;2023-05-10T09:38:58;27.80;;;26.80;;
63379;SDS011;53160;55.014;73.156;2023-05-10T09:44:08;36.00;;;31.40;;
63379;SDS011;53160;55.014;73.156;2023-05-10T09:46:38;32.20;;;29.40;;
63379;SDS011;53160;55.014;73.156;2023-05-10T09:49:03;29.20;;;28.00;;
63379;SDS011;53160;55.014;73.156;2023-05-10T09:51:31;30.20;;;29.20;;
63379;SDS011;53160;55.014;73.156;2023-05-10T09:54:14;24.60;;;23.00;;
63379;SDS011;53160;55.014;73.156;2023-05-10T09:56:40;27.40;;;26.60;;
63379;SDS011;53160;55.014;73.156;2023-05-10T09:59:08;27.40;;;26.40;;
63379;SDS011;53160;55.014;73.156;2023-05-10T10:01:57;21.20;;;19.80;;
63379;SDS011;53160;55.014;73.156;2023-05-10T10:07:07;25.40;;;24.80;;
63379;SDS011;53160;55.014;73.156;2023-05-10T10:12:18;27.40;;;27.40;;
63379;SDS011;53160;55.014;73.156;2023-05-10T10:15:02;27.00;;;27.00;;
63379;SDS011;53160;55.014;73.156;2023-05-10T10:17:29;30.40;;;27.60;;
63379;SDS011;53160;55.014;73.156;2023-05-10T10:19:56;54.60;;;44.80;;
63379;SDS011;53160;55.014;73.156;2023-05-10T10:22:22;31.60;;;28.80;;
63379;SDS011;53160;55.014;73.156;2023-05-10T10:24:49;28.50;;;26.50;;
63379;SDS011;53160;55.014;73.156;2023-05-10T10:27:26;26.80;;;26.40;;
63379;SDS011;53160;55.014;73.156;2023-05-10T10:32:28;24.20;;;23.80;;
63379;SDS011;53160;55.014;73.156;2023-05-10T10:34:55;26.60;;;25.80;;
63379;SDS011;53160;55.014;73.156;2023-05-10T10:37:41;27.20;;;25.00;;
63379;SDS011;53160;55.014;73.156;2023-05-10T10:40:33;21.00;;;20.20;;
63379;SDS011;53160;55.014;73.156;2023-05-10T10:43:20;30.40;;;28.20;;
63379;SDS011;53160;55.014;73.156;2023-05-10T10:48:51;23.80;;;23.00;;
63379;SDS011;53160;55.014;73.156;2023-05-10T10:54:37;23.20;;;21.80;;
63379;SDS011;53160;55.014;73.156;2023-05-10T10:57:12;26.40;;;25.40;;
63379;SDS011;53160;55.014;73.156;2023-05-10T11:03:24;25.60;;;23.40;;
63379;SDS011;53160;55.014;73.156;2023-05-10T11:05:25;20.80;;;20.00;;
63379;SDS011;53160;55.014;73.156;2023-05-10T11:08:27;22.60;;;21.00;;
63379;SDS011;53160;55.014;73.156;2023-05-10T11:13:30;20.60;;;20.60;;
63379;SDS011;53160;55.014;73.156;2023-05-10T11:15:57;25.40;;;24.40;;
63379;SDS011;53160;55.014;73.156;2023-05-10T11:18:28;25.40;;;23.60;;
63379;SDS011;53160;55.014;73.156;2023-05-10T11:20:58;22.00;;;21.00;;
63379;SDS011;53160;55.014;73.156;2023-05-10T11:23:31;34.00;;;29.00;;
63379;SDS011;53160;55.014;73.156;2023-05-10T11:25:58;22.20;;;21.60;;
63379;SDS011;53160;55.014;73.156;2023-05-10T11:28:25;19.40;;;19.20;;
63379;SDS011;53160;55.014;73.156;2023-05-10T11:30:51;28.00;;;25.80;;
63379;SDS011;53160;55.014;73.156;2023-05-10T11:36:02;25.00;;;24.80;;
63379;SDS011;53160;55.014;73.156;2023-05-10T11:38:28;23.60;;;22.80;;
63379;SDS011;53160;55.014;73.156;2023-05-10T11:40:58;26.80;;;24.20;;
63379;SDS011;53160;55.014;73.156;2023-05-10T11:43:24;23.80;;;23.00;;
63379;SDS011;53160;55.014;73.156;2023-05-10T11:45:53;22.60;;;21.60;;
63379;SDS011;53160;55.014;73.156;2023-05-10T11:48:20;144.00;;;134.75;;
63379;SDS011;53160;55.014;73.156;2023-05-10T11:50:53;34.80;;;32.00;;
63379;SDS011;53160;55.014;73.156;2023-05-10T11:53:22;24.40;;;23.20;;
63379;SDS011;53160;55.014;73.156;2023-05-10T11:55:50;22.60;;;22.00;;
63379;SDS011;53160;55.014;73.156;2023-05-10T11:58:17;19.40;;;19.00;;
63379;SDS011;53160;55.014;73.156;2023-05-10T12:03:28;24.40;;;22.80;;
63379;SDS011;53160;55.014;73.156;2023-05-10T12:06:13;164.00;;;150.33;;
63379;SDS011;53160;55.014;73.156;2023-05-10T12:08:43;29.40;;;27.60;;
63379;SDS011;53160;55.014;73.156;2023-05-10T12:11:24;26.60;;;23.40;;
63379;SDS011;53160;55.014;73.156;2023-05-10T12:13:53;19.40;;;19.40;;
63379;SDS011;53160;55.014;73.156;2023-05-10T12:16:20;21.40;;;20.60;;
63379;SDS011;53160;55.014;73.156;2023-05-10T12:18:50;18.20;;;16.40;;
63379;SDS011;53160;55.014;73.156;2023-05-10T12:21:16;15.80;;;15.20;;
63379;SDS011;53160;55.014;73.156;2023-05-10T12:23:45;26.00;;;24.20;;
63379;SDS011;53160;55.014;73.156;2023-05-10T12:26:14;25.60;;;21.20;;
63379;SDS011;53160;55.014;73.156;2023-05-10T12:28:40;21.00;;;19.40;;
63379;SDS011;53160;55.014;73.156;2023-05-10T12:31:07;22.20;;;21.60;;
63379;SDS011;53160;55.014;73.156;2023-05-10T12:33:36;27.20;;;23.80;;
63379;SDS011;53160;55.014;73.156;2023-05-10T12:39:08;25.80;;;24.80;;
63379;SDS011;53160;55.014;73.156;2023-05-10T12:41:35;38.00;;;33.80;;
63379;SDS011;53160;55.014;73.156;2023-05-10T12:44:01;27.60;;;26.00;;
63379;SDS011;53160;55.014;73.156;2023-05-10T12:46:27;27.00;;;25.00;;
63379;SDS011;53160;55.014;73.156;2023-05-10T12:49:31;23.60;;;20.80;;
63379;SDS011;53160;55.014;73.156;2023-05-10T12:51:57;33.60;;;28.00;;
63379;SDS011;53160;55.014;73.156;2023-05-10T12:54:22;21.50;;;20.00;;
63379;SDS011;53160;55.014;73.156;2023-05-10T12:56:49;23.20;;;19.20;;
63379;SDS011;53160;55.014;73.156;2023-05-10T12:59:15;28.40;;;24.80;;
63379;SDS011;53160;55.014;73.156;2023-05-10T13:01:41;24.60;;;23.20;;
63379;SDS011;53160;55.014;73.156;2023-05-10T13:06:51;23.60;;;21.80;;
63379;SDS011;53160;55.014;73.156;2023-05-10T13:09:17;26.00;;;23.75;;
63379;SDS011;53160;55.014;73.156;2023-05-10T13:14:29;21.80;;;19.60;;
63379;SDS011;53160;55.014;73.156;2023-05-10T13:16:55;24.00;;;18.00;;
63379;SDS011;53160;55.014;73.156;2023-05-10T13:19:21;25.60;;;23.60;;
63379;SDS011;53160;55.014;73.156;2023-05-10T13:21:47;20.80;;;18.60;;
63379;SDS011;53160;55.014;73.156;2023-05-10T13:24:32;19.60;;;18.20;;
63379;SDS011;53160;55.014;73.156;2023-05-10T13:26:58;19.40;;;18.60;;
63379;SDS011;53160;55.014;73.156;2023-05-10T13:29:24;25.40;;;23.80;;
63379;SDS011;53160;55.014;73.156;2023-05-10T13:31:50;26.80;;;25.20;;
63379;SDS011;53160;55.014;73.156;2023-05-10T13:34:16;19.40;;;19.00;;
63379;SDS011;53160;55.014;73.156;2023-05-10T13:36:46;27.60;;;25.20;;
63379;SDS011;53160;55.014;73.156;2023-05-10T13:41:59;19.80;;;18.00;;
63379;SDS011;53160;55.014;73.156;2023-05-10T13:44:25;22.80;;;21.00;;
63379;SDS011;53160;55.014;73.156;2023-05-10T13:46:51;21.50;;;20.00;;
63379;SDS011;53160;55.014;73.156;2023-05-10T13:49:17;29.00;;;24.00;;
63379;SDS011;53160;55.014;73.156;2023-05-10T13:51:43;26.80;;;25.20;;
63379;SDS011;53160;55.014;73.156;2023-05-10T13:54:10;42.40;;;34.40;;
63379;SDS011;53160;55.014;73.156;2023-05-10T13:56:36;46.50;;;31.75;;
63379;SDS011;53160;55.014;73.156;2023-05-10T13:59:02;29.00;;;23.00;;
63379;SDS011;53160;55.014;73.156;2023-05-10T14:01:28;35.00;;;29.60;;
63379;SDS011;53160;55.014;73.156;2023-05-10T14:06:39;20.40;;;20.00;;
63379;SDS011;53160;55.014;73.156;2023-05-10T14:09:05;23.75;;;19.75;;
63379;SDS011;53160;55.014;73.156;2023-05-10T14:11:31;33.40;;;26.00;;
63379;SDS011;53160;55.014;73.156;2023-05-10T14:13:57;16.80;;;14.40;;
63379;SDS011;53160;55.014;73.156;2023-05-10T14:16:23;27.75;;;21.25;;
63379;SDS011;53160;55.014;73.156;2023-05-10T14:18:49;22.40;;;21.20;;
63379;SDS011;53160;55.014;73.156;2023-05-10T14:21:15;15.50;;;10.75;;
63379;SDS011;53160;55.014;73.156;2023-05-10T14:23:41;25.50;;;24.50;;
63379;SDS011;53160;55.014;73.156;2023-05-10T14:26:07;28.75;;;21.75;;
63379;SDS011;53160;55.014;73.156;2023-05-10T14:28:33;23.20;;;20.40;;
63379;SDS011;53160;55.014;73.156;2023-05-10T14:30:59;23.25;;;19.50;;
63379;SDS011;53160;55.014;73.156;2023-05-10T14:33:26;39.60;;;24.80;;
63379;SDS011;53160;55.014;73.156;2023-05-10T14:35:53;29.00;;;26.60;;
63379;SDS011;53160;55.014;73.156;2023-05-10T14:38:19;26.00;;;23.40;;
63379;SDS011;53160;55.014;73.156;2023-05-10T14:41:04;7.00;;;6.80;;
63379;SDS011;53160;55.014;73.156;2023-05-10T14:44:07;9.80;;;9.00;;
63379;SDS011;53160;55.014;73.156;2023-05-10T14:46:33;10.20;;;9.60;;
63379;SDS011;53160;55.014;73.156;2023-05-10T14:48:59;12.20;;;12.20;;
63379;SDS011;53160;55.014;73.156;2023-05-10T14:51:25;11.75;;;11.00;;
63379;SDS011;53160;55.014;73.156;2023-05-10T14:53:51;11.60;;;10.80;;
63379;SDS011;53160;55.014;73.156;2023-05-10T14:56:17;17.00;;;13.50;;
63379;SDS011;53160;55.014;73.156;2023-05-10T14:58:43;21.80;;;18.00;;
63379;SDS011;53160;55.014;73.156;2023-05-10T15:01:10;21.60;;;20.40;;
63379;SDS011;53160;55.014;73.156;2023-05-10T15:03:37;19.20;;;18.00;;
63379;SDS011;53160;55.014;73.156;2023-05-10T15:06:03;22.75;;;21.25;;
63379;SDS011;53160;55.014;73.156;2023-05-10T15:08:29;25.00;;;23.00;;
63379;SDS011;53160;55.014;73.156;2023-05-10T15:10:55;22.00;;;20.00;;
63379;SDS011;53160;55.014;73.156;2023-05-10T15:13:40;26.80;;;24.40;;
63379;SDS011;53160;55.014;73.156;2023-05-10T15:16:06;23.25;;;22.00;;
63379;SDS011;53160;55.014;73.156;2023-05-10T15:18:32;31.00;;;25.00;;
63379;SDS011;53160;55.014;73.156;2023-05-10T15:20:58;25.80;;;22.20;;
63379;SDS011;53160;55.014;73.156;2023-05-10T15:23:24;29.00;;;26.60;;
63379;SDS011;53160;55.014;73.156;2023-05-10T15:25:50;30.00;;;28.00;;
63379;SDS011;53160;55.014;73.156;2023-05-10T15:28:17;19.80;;;19.60;;
63379;SDS011;53160;55.014;73.156;2023-05-10T15:30:43;29.50;;;25.25;;
63379;SDS011;53160;55.014;73.156;2023-05-10T15:33:09;36.00;;;31.60;;
63379;SDS011;53160;55.014;73.156;2023-05-10T15:35:35;48.75;;;34.00;;
63379;SDS011;53160;55.014;73.156;2023-05-10T15:38:03;31.80;;;28.80;;
63379;SDS011;53160;55.014;73.156;2023-05-10T15:40:29;34.00;;;29.25;;
63379;SDS011;53160;55.014;73.156;2023-05-10T15:42:57;36.80;;;32.00;;
63379;SDS011;53160;55.014;73.156;2023-05-10T15:45:23;36.80;;;33.40;;
63379;SDS011;53160;55.014;73.156;2023-05-10T15:47:49;32.40;;;28.20;;
63379;SDS011;53160;55.014;73.156;2023-05-10T15:50:15;30.75;;;29.25;;
63379;SDS011;53160;55.014;73.156;2023-05-10T15:52:41;23.60;;;22.00;;
63379;SDS011;53160;55.014;73.156;2023-05-10T15:55:08;28.00;;;24.00;;
63379;SDS011;53160;55.014;73.156;2023-05-10T15:57:56;30.60;;;29.00;;
63379;SDS011;53160;55.014;73.156;2023-05-10T16:00:22;27.40;;;25.60;;
63379;SDS011;53160;55.014;73.156;2023-05-10T16:02:47;24.50;;;24.00;;
63379;SDS011;53160;55.014;73.156;2023-05-10T16:05:32;25.60;;;22.80;;
63379;SDS011;53160;55.014;73.156;2023-05-10T16:07:58;25.60;;;25.20;;
63379;SDS011;53160;55.014;73.156;2023-05-10T16:10:43;22.00;;;21.60;;